Time;durP1;ratioP1;P1;durP2;ratioP2;P2;SDS_P1;SDS_P2;PMS_P1;PMS_P2;Temp;Humidity;BMP_temperature;BMP_pressure;BME280_temperature;BME280_humidity;BME280_pressure;Samples;Min_cycle;Max_cycle;Signal;HPM_P1;HPM_P2
2023/06/06 00:00:39;;;;;;;5.63;4.70;;;13.70;99.90;;;;;;5137119;27;20479;-74
2023/06/06 00:03:08;;;;;;;6.40;5.63;;;13.60;99.90;;;;;;5136666;27;20832;-75
2023/06/06 00:05:37;;;;;;;6.50;5.63;;;13.60;99.90;;;;;;5136914;27;20534;-75
2023/06/06 00:08:05;;;;;;;6.63;5.70;;;13.60;99.90;;;;;;5136778;27;20441;-75
2023/06/06 00:10:32;;;;;;;5.70;4.63;;;13.60;99.90;;;;;;5136829;27;20437;-74
2023/06/06 00:13:01;;;;;;;6.17;5.57;;;13.60;99.90;;;;;;5136754;27;20430;-74
2023/06/06 00:15:30;;;;;;;7.90;5.10;;;13.60;99.90;;;;;;5136585;27;20518;-74
2023/06/06 00:17:59;;;;;;;5.60;5.00;;;13.60;99.90;;;;;;5136470;27;20804;-75
2023/06/06 00:20:32;;;;;;;6.83;4.90;;;13.70;99.90;;;;;;5136404;27;20438;-74
2023/06/06 00:23:00;;;;;;;8.50;6.03;;;13.70;99.90;;;;;;5136421;27;20884;-74
2023/06/06 00:25:27;;;;;;;6.23;4.97;;;13.70;99.90;;;;;;5136465;27;20442;-74
2023/06/06 00:27:54;;;;;;;5.50;4.73;;;13.60;99.90;;;;;;5136156;27;20431;-74
2023/06/06 00:30:21;;;;;;;5.03;4.43;;;13.60;99.90;;;;;;5136348;27;20533;-74
2023/06/06 00:32:48;;;;;;;7.37;5.83;;;13.60;99.90;;;;;;5136519;27;20458;-74
2023/06/06 00:35:15;;;;;;;5.90;5.27;;;13.60;99.90;;;;;;5136049;27;20488;-74
2023/06/06 00:37:44;;;;;;;8.30;6.07;;;13.60;99.90;;;;;;5136253;27;21038;-74
2023/06/06 00:40:12;;;;;;;8.93;7.77;;;13.60;99.90;;;;;;5136212;27;20439;-74
2023/06/06 00:42:39;;;;;;;11.67;7.00;;;13.50;99.90;;;;;;5135895;27;20476;-74
2023/06/06 00:45:08;;;;;;;8.53;6.80;;;13.50;99.90;;;;;;5136206;27;20434;-74
2023/06/06 00:47:35;;;;;;;13.43;8.60;;;13.50;99.90;;;;;;5136231;27;20447;-74
2023/06/06 00:50:05;;;;;;;10.13;7.63;;;13.50;99.90;;;;;;5136133;27;20446;-75
2023/06/06 00:52:33;;;;;;;9.17;7.30;;;13.50;99.90;;;;;;5136160;27;20450;-75
2023/06/06 00:55:01;;;;;;;16.03;7.43;;;13.50;99.90;;;;;;5135782;27;20553;-74
2023/06/06 00:57:30;;;;;;;22.50;6.27;;;13.50;99.90;;;;;;5136094;27;20928;-75
2023/06/06 00:59:59;;;;;;;18.20;7.57;;;13.50;99.90;;;;;;5136097;27;20936;-74
2023/06/06 01:02:28;;;;;;;25.07;7.77;;;13.50;99.90;;;;;;5136091;27;20484;-74
2023/06/06 01:04:57;;;;;;;7.17;6.30;;;13.40;99.90;;;;;;5135992;27;20792;-74
2023/06/06 01:07:24;;;;;;;6.33;5.73;;;13.40;99.90;;;;;;5135704;27;20967;-75
2023/06/06 01:09:51;;;;;;;9.70;5.77;;;13.40;99.90;;;;;;5135338;27;20442;-75
2023/06/06 01:12:29;;;;;;;7.03;6.13;;;13.40;99.90;;;;;;5135673;27;20434;-74
2023/06/06 01:15:07;;;;;;;12.03;6.40;;;13.40;99.90;;;;;;5135525;27;20445;-73
2023/06/06 01:17:36;;;;;;;6.20;5.60;;;13.50;99.90;;;;;;5135242;27;20438;-75
2023/06/06 01:20:11;;;;;;;5.47;4.97;;;13.50;99.90;;;;;;5135369;27;20435;-74
2023/06/06 01:22:43;;;;;;;6.80;5.50;;;13.50;99.90;;;;;;5135244;27;20772;-75
2023/06/06 01:25:12;;;;;;;6.00;5.43;;;13.50;99.90;;;;;;5135187;27;20890;-75
2023/06/06 01:27:39;;;;;;;6.40;5.47;;;13.50;99.90;;;;;;5135143;27;20470;-74
2023/06/06 01:30:08;;;;;;;8.43;6.07;;;13.50;99.90;;;;;;5135206;27;20521;-75
2023/06/06 01:32:42;;;;;;;5.57;5.07;;;13.50;99.90;;;;;;5134974;27;20435;-75
2023/06/06 01:35:15;;;;;;;6.43;5.77;;;13.60;99.90;;;;;;5135519;27;20439;-74
2023/06/06 01:37:49;;;;;;;6.13;5.53;;;13.70;99.90;;;;;;5135144;27;20491;-74
2023/06/06 01:40:19;;;;;;;5.70;5.00;;;13.70;99.90;;;;;;5135365;27;20765;-73
2023/06/06 01:42:49;;;;;;;8.00;6.90;;;13.70;99.90;;;;;;5135053;27;20929;-74
2023/06/06 01:45:18;;;;;;;7.20;6.03;;;13.70;99.90;;;;;;5135066;27;20435;-74
2023/06/06 01:47:45;;;;;;;6.63;5.80;;;13.70;99.90;;;;;;5134760;27;20960;-74
2023/06/06 01:50:14;;;;;;;6.60;5.90;;;13.70;99.90;;;;;;5134708;27;20475;-74
2023/06/06 01:52:43;;;;;;;6.83;6.10;;;13.70;99.90;;;;;;5135130;27;20499;-74
2023/06/06 01:55:10;;;;;;;8.13;6.57;;;13.80;99.90;;;;;;5133935;27;20888;-74
2023/06/06 01:57:38;;;;;;;6.93;6.23;;;13.80;99.90;;;;;;5134803;27;20518;-73
2023/06/06 02:00:08;;;;;;;7.20;6.03;;;13.90;99.90;;;;;;5134457;27;20446;-74
2023/06/06 02:02:38;;;;;;;7.53;6.13;;;13.90;99.90;;;;;;5134748;27;20431;-74
2023/06/06 02:05:07;;;;;;;6.33;5.73;;;13.80;99.90;;;;;;5134297;27;20491;-74
2023/06/06 02:07:44;;;;;;;7.60;6.90;;;13.80;99.90;;;;;;5134332;27;20492;-74
2023/06/06 02:10:11;;;;;;;8.10;5.60;;;13.80;99.90;;;;;;5134499;27;20855;-73
2023/06/06 02:12:38;;;;;;;11.83;6.97;;;13.80;99.90;;;;;;5134670;27;20435;-75
2023/06/06 02:15:07;;;;;;;8.70;6.70;;;13.80;99.90;;;;;;5134265;27;20493;-75
2023/06/06 02:17:35;;;;;;;8.47;7.57;;;13.80;99.90;;;;;;5134138;27;20938;-74
2023/06/06 02:20:04;;;;;;;8.73;6.80;;;13.80;99.90;;;;;;5134220;27;20439;-75
2023/06/06 02:22:31;;;;;;;7.77;6.93;;;13.80;99.90;;;;;;5134366;27;20197;-75
2023/06/06 02:25:02;;;;;;;7.53;6.73;;;13.90;99.90;;;;;;5133941;27;20566;-74
2023/06/06 02:27:30;;;;;;;7.90;6.60;;;13.90;99.90;;;;;;5134369;27;20921;-74
2023/06/06 02:30:03;;;;;;;7.40;6.70;;;13.90;99.90;;;;;;5133960;27;20933;-74
2023/06/06 02:32:34;;;;;;;8.70;7.67;;;14.00;99.90;;;;;;5133863;27;20438;-73
2023/06/06 02:35:06;;;;;;;9.57;6.10;;;14.00;99.90;;;;;;5134153;27;20488;-74
2023/06/06 02:37:33;;;;;;;7.73;6.63;;;14.00;99.90;;;;;;5133844;27;20448;-75
2023/06/06 02:40:08;;;;;;;8.47;7.57;;;14.10;99.90;;;;;;5134321;27;20517;-74
2023/06/06 02:42:36;;;;;;;8.80;6.97;;;14.10;99.90;;;;;;5134350;27;20429;-75
2023/06/06 02:45:09;;;;;;;8.20;7.40;;;14.00;99.90;;;;;;5134331;27;20577;-75
2023/06/06 02:47:37;;;;;;;11.43;7.97;;;14.00;99.90;;;;;;5133989;27;20866;-75
2023/06/06 02:50:05;;;;;;;7.37;6.60;;;13.90;99.90;;;;;;5134212;27;20948;-74
2023/06/06 02:52:32;;;;;;;8.77;7.73;;;13.90;99.90;;;;;;5134141;27;20482;-75
2023/06/06 02:54:59;;;;;;;9.40;7.60;;;13.90;99.90;;;;;;5133899;27;20466;-74
2023/06/06 02:57:28;;;;;;;8.40;7.47;;;13.90;99.90;;;;;;5133935;27;20439;-74
2023/06/06 02:59:58;;;;;;;7.90;7.10;;;13.90;99.90;;;;;;5133660;27;20500;-75
2023/06/06 03:02:25;;;;;;;7.47;6.30;;;13.90;99.90;;;;;;5133470;27;20473;-74
2023/06/06 03:04:57;;;;;;;8.20;7.33;;;13.80;99.90;;;;;;5133710;27;21011;-74
2023/06/06 03:07:24;;;;;;;7.60;6.33;;;13.80;99.90;;;;;;5133434;27;20444;-75
2023/06/06 03:09:51;;;;;;;7.70;6.77;;;13.80;99.90;;;;;;5133288;27;20437;-74
2023/06/06 03:12:18;;;;;;;8.30;6.90;;;13.80;99.90;;;;;;5133559;27;20479;-74
2023/06/06 03:14:46;;;;;;;8.40;6.27;;;13.70;99.90;;;;;;5133532;27;20443;-74
2023/06/06 03:17:13;;;;;;;9.03;7.70;;;13.70;99.90;;;;;;5133954;27;20975;-74
2023/06/06 03:19:42;;;;;;;7.43;6.73;;;13.60;99.90;;;;;;5133856;27;20434;-74
2023/06/06 03:22:09;;;;;;;7.10;6.13;;;13.60;99.90;;;;;;5134031;27;20947;-75
2023/06/06 03:24:37;;;;;;;8.77;5.93;;;13.50;99.90;;;;;;5133625;27;20878;-74
2023/06/06 03:27:10;;;;;;;7.40;6.60;;;13.50;99.90;;;;;;5133439;27;20534;-75
2023/06/06 03:29:39;;;;;;;8.90;6.90;;;13.40;99.90;;;;;;5133656;27;20458;-75
2023/06/06 03:32:09;;;;;;;8.40;6.33;;;13.40;99.90;;;;;;5133481;27;20431;-75
2023/06/06 03:34:36;;;;;;;8.73;7.20;;;13.40;99.90;;;;;;5133464;27;20516;-74
2023/06/06 03:37:11;;;;;;;7.00;6.10;;;13.40;99.90;;;;;;5133539;27;20446;-75
2023/06/06 03:39:39;;;;;;;7.00;5.90;;;13.50;99.90;;;;;;5133575;27;20829;-75
2023/06/06 03:42:07;;;;;;;8.40;6.60;;;13.50;99.90;;;;;;5133504;27;20448;-75
2023/06/06 03:44:34;;;;;;;10.73;6.93;;;13.50;99.90;;;;;;5133180;27;20482;-75
2023/06/06 03:47:01;;;;;;;7.43;6.67;;;13.60;99.90;;;;;;5133077;27;20485;-75
2023/06/06 03:49:36;;;;;;;8.90;6.50;;;13.60;99.90;;;;;;5133250;27;20795;-75
2023/06/06 03:52:05;;;;;;;7.87;7.07;;;13.60;99.90;;;;;;5133097;27;20529;-75
2023/06/06 03:54:36;;;;;;;8.30;6.00;;;13.70;99.90;;;;;;5132705;27;20466;-75
2023/06/06 03:57:03;;;;;;;9.30;6.90;;;13.70;99.90;;;;;;5133144;27;20433;-75
2023/06/06 03:59:30;;;;;;;7.40;6.40;;;13.70;99.90;;;;;;5133105;27;20425;-75
2023/06/06 04:02:00;;;;;;;8.27;6.87;;;13.80;99.90;;;;;;5133277;27;20431;-75
2023/06/06 04:04:27;;;;;;;9.10;7.00;;;13.80;99.90;;;;;;5133291;27;20478;-75
2023/06/06 04:06:57;;;;;;;14.03;7.20;;;13.90;99.90;;;;;;5133443;27;20437;-75
2023/06/06 04:09:24;;;;;;;7.87;6.93;;;13.90;99.90;;;;;;5134415;28;20768;-75
2023/06/06 04:11:51;;;;;;;7.23;6.43;;;14.00;99.90;;;;;;5134820;27;20503;-75
2023/06/06 04:14:23;;;;;;;10.80;7.10;;;14.00;99.90;;;;;;5134137;27;20435;-75
2023/06/06 04:16:50;;;;;;;7.23;5.87;;;14.10;99.90;;;;;;5134164;27;20463;-73
2023/06/06 04:19:17;;;;;;;9.90;6.20;;;14.10;99.90;;;;;;5136804;27;20436;-72
2023/06/06 04:21:45;;;;;;;7.83;6.73;;;14.10;99.90;;;;;;5137718;27;20439;-73
2023/06/06 04:24:13;;;;;;;8.30;6.27;;;14.20;99.90;;;;;;5137571;27;20538;-72
2023/06/06 04:26:40;;;;;;;9.67;8.10;;;14.20;99.90;;;;;;5136944;27;20471;-73
2023/06/06 04:29:13;;;;;;;8.63;7.73;;;14.30;99.90;;;;;;5136562;27;20446;-73
2023/06/06 04:31:41;;;;;;;9.50;8.33;;;14.40;99.90;;;;;;5136483;27;20450;-73
2023/06/06 04:34:09;;;;;;;14.43;11.77;;;14.40;99.90;;;;;;5136427;27;20435;-74
2023/06/06 04:36:38;;;;;;;18.03;14.10;;;14.40;99.90;;;;;;5136372;27;20434;-74
2023/06/06 04:39:06;;;;;;;14.90;11.50;;;14.50;99.90;;;;;;5136254;27;20444;-74
2023/06/06 04:41:35;;;;;;;15.63;13.20;;;14.50;99.90;;;;;;5136383;27;20435;-75
2023/06/06 04:44:03;;;;;;;16.73;13.03;;;14.60;99.90;;;;;;5135967;27;20478;-75
2023/06/06 04:46:30;;;;;;;14.60;12.77;;;14.60;99.90;;;;;;5136323;27;20485;-74
2023/06/06 04:49:01;;;;;;;19.00;13.13;;;14.70;99.90;;;;;;5136141;27;20933;-75
2023/06/06 04:51:30;;;;;;;15.27;13.00;;;14.70;99.90;;;;;;5136391;27;20959;-74
2023/06/06 04:53:58;;;;;;;13.47;12.07;;;14.80;99.90;;;;;;5135992;27;20451;-74
2023/06/06 04:56:26;;;;;;;14.50;12.00;;;14.90;99.90;;;;;;5136380;27;20442;-74
2023/06/06 04:58:54;;;;;;;16.60;12.57;;;14.90;99.90;;;;;;5136405;27;20950;-74
2023/06/06 05:01:23;;;;;;;15.97;11.60;;;15.00;99.90;;;;;;5136237;27;20434;-74
2023/06/06 05:03:50;;;;;;;15.53;12.80;;;15.10;99.90;;;;;;5136879;27;20781;-74
2023/06/06 05:06:17;;;;;;;14.90;12.00;;;15.10;99.90;;;;;;5137974;27;20440;-74
2023/06/06 05:08:45;;;;;;;15.97;12.50;;;15.20;99.90;;;;;;5136038;27;20939;-75
2023/06/06 05:11:13;;;;;;;16.03;12.73;;;15.30;99.90;;;;;;5135818;27;20439;-74
2023/06/06 05:13:40;;;;;;;15.60;11.50;;;15.30;99.90;;;;;;5135664;27;20830;-74
2023/06/06 05:16:09;;;;;;;12.13;10.63;;;15.40;99.90;;;;;;5135476;27;20430;-74
2023/06/06 05:18:36;;;;;;;11.87;10.40;;;15.50;99.90;;;;;;5135325;27;20498;-74
2023/06/06 05:21:04;;;;;;;12.13;10.87;;;15.50;99.90;;;;;;5135280;27;20937;-74
2023/06/06 05:23:31;;;;;;;16.17;11.00;;;15.60;99.90;;;;;;5135442;27;20803;-73
2023/06/06 05:25:59;;;;;;;17.13;11.37;;;15.60;99.90;;;;;;5135300;27;20486;-75
2023/06/06 05:28:26;;;;;;;12.00;10.10;;;15.70;99.90;;;;;;5135210;27;20508;-74
2023/06/06 05:30:54;;;;;;;13.87;10.93;;;15.70;99.90;;;;;;5134954;27;20435;-74
2023/06/06 05:33:22;;;;;;;15.07;12.50;;;15.90;99.90;;;;;;5135529;27;20434;-74
2023/06/06 05:35:49;;;;;;;12.87;11.47;;;15.90;99.90;;;;;;5131925;27;20937;-74
2023/06/06 05:38:21;;;;;;;13.40;11.30;;;16.00;99.90;;;;;;5133607;27;20518;-75
2023/06/06 05:40:48;;;;;;;12.60;10.43;;;16.00;99.90;;;;;;5133984;27;20443;-75
2023/06/06 05:43:16;;;;;;;14.70;11.33;;;16.10;99.90;;;;;;5133978;27;20450;-75
2023/06/06 05:45:48;;;;;;;13.40;11.03;;;16.10;99.90;;;;;;5133773;27;20552;-73
2023/06/06 05:48:18;;;;;;;13.00;11.10;;;16.10;99.90;;;;;;5131618;27;20423;-74
2023/06/06 05:50:52;;;;;;;17.40;12.70;;;16.20;99.90;;;;;;5134100;27;20447;-74
2023/06/06 05:53:19;;;;;;;13.50;11.93;;;16.30;99.90;;;;;;5134540;27;20488;-75
2023/06/06 05:55:47;;;;;;;15.40;12.87;;;16.40;99.90;;;;;;5134700;27;20467;-73
2023/06/06 05:58:14;;;;;;;13.20;11.60;;;16.50;99.90;;;;;;5134340;27;20439;-73
2023/06/06 06:00:41;;;;;;;13.17;11.77;;;16.50;99.90;;;;;;5135069;27;20829;-77
2023/06/06 06:03:11;;;;;;;15.47;11.50;;;16.60;99.90;;;;;;5134562;27;20791;-74
2023/06/06 06:05:40;;;;;;;14.10;11.70;;;16.60;99.90;;;;;;5134322;27;20490;-74
2023/06/06 06:08:14;;;;;;;16.13;11.70;;;16.70;99.90;;;;;;5134802;27;20446;-75
2023/06/06 06:10:52;;;;;;;14.50;11.40;;;16.70;99.90;;;;;;5135335;27;20450;-75
2023/06/06 06:13:19;;;;;;;12.93;11.43;;;16.80;99.90;;;;;;5134845;27;20485;-73
2023/06/06 06:15:52;;;;;;;21.53;12.20;;;16.80;99.90;;;;;;5134006;27;20432;-74
2023/06/06 06:18:19;;;;;;;15.20;13.10;;;16.90;99.90;;;;;;5133966;27;20444;-73
2023/06/06 06:20:47;;;;;;;19.40;12.90;;;16.90;99.90;;;;;;5130570;27;20485;-75
2023/06/06 06:23:15;;;;;;;14.93;11.93;;;17.00;99.90;;;;;;5132354;27;20431;-74
2023/06/06 06:25:43;;;;;;;11.93;9.57;;;17.00;99.90;;;;;;5133543;27;21012;-76
2023/06/06 06:28:19;;;;;;;11.93;10.30;;;17.00;99.60;;;;;;5133770;27;20517;-74
2023/06/06 06:30:47;;;;;;;11.90;10.60;;;17.00;99.20;;;;;;5134249;27;20475;-75
2023/06/06 06:33:14;;;;;;;12.80;9.80;;;17.10;99.10;;;;;;5133856;27;20937;-74
2023/06/06 06:35:42;;;;;;;12.37;10.70;;;17.10;98.90;;;;;;5133525;27;21006;-75
2023/06/06 06:38:09;;;;;;;13.90;11.13;;;17.20;98.70;;;;;;5134852;27;20435;-74
2023/06/06 06:40:38;;;;;;;11.50;9.83;;;17.30;98.60;;;;;;5134036;27;20522;-75
2023/06/06 06:43:05;;;;;;;13.20;10.60;;;17.40;98.30;;;;;;5134385;27;20848;-75
2023/06/06 06:45:32;;;;;;;11.43;9.70;;;17.50;97.90;;;;;;5134417;27;20480;-75
2023/06/06 06:48:01;;;;;;;11.47;9.67;;;17.50;97.30;;;;;;5133779;27;20436;-75
2023/06/06 06:50:28;;;;;;;10.00;8.40;;;17.60;97.00;;;;;;5134709;27;20435;-76
2023/06/06 06:53:02;;;;;;;11.33;8.77;;;17.70;96.50;;;;;;5135925;27;20605;-74
2023/06/06 06:55:29;;;;;;;11.27;8.77;;;17.80;95.80;;;;;;5129396;27;20468;-75
2023/06/06 06:57:58;;;;;;;12.57;9.17;;;17.90;96.10;;;;;;5135885;27;20480;-74
2023/06/06 07:00:31;;;;;;;10.93;9.23;;;18.00;96.00;;;;;;5130591;27;20450;-74
2023/06/06 07:02:59;;;;;;;10.67;8.37;;;18.00;95.10;;;;;;5135667;27;20440;-76
2023/06/06 07:05:35;;;;;;;10.77;8.67;;;18.10;94.90;;;;;;5136911;27;20482;-76
2023/06/06 07:08:03;;;;;;;14.70;11.60;;;18.30;95.40;;;;;;5137182;28;20446;-75
2023/06/06 07:10:32;;;;;;;12.40;9.70;;;18.50;95.30;;;;;;5136385;28;20816;-75
2023/06/06 07:13:01;;;;;;;11.37;9.03;;;18.80;94.50;;;;;;5136641;27;20440;-76
2023/06/06 07:15:28;;;;;;;12.50;9.60;;;19.00;94.10;;;;;;5136788;27;20433;-76
2023/06/06 07:17:55;;;;;;;10.33;7.80;;;19.30;93.50;;;;;;5136760;27;20856;-76
2023/06/06 07:20:23;;;;;;;10.40;9.00;;;19.50;92.70;;;;;;5136315;27;20435;-76
2023/06/06 07:22:53;;;;;;;10.87;9.57;;;19.70;92.50;;;;;;5136109;27;20475;-75
2023/06/06 07:25:24;;;;;;;10.47;8.37;;;19.80;92.20;;;;;;5136124;27;20480;-76
2023/06/06 07:27:52;;;;;;;14.20;10.67;;;19.80;91.60;;;;;;5136818;27;20511;-75
2023/06/06 07:30:20;;;;;;;11.33;9.40;;;19.70;91.70;;;;;;5135525;27;20514;-76
2023/06/06 07:32:47;;;;;;;11.00;8.70;;;19.70;92.00;;;;;;5137324;27;20428;-75
2023/06/06 07:35:19;;;;;;;11.07;8.67;;;19.90;92.00;;;;;;5135542;28;20476;-75
2023/06/06 07:37:46;;;;;;;9.60;8.60;;;20.20;92.00;;;;;;5136672;27;20435;-76
2023/06/06 07:40:16;;;;;;;10.17;7.50;;;20.40;90.10;;;;;;5135900;27;20467;-75
2023/06/06 07:42:48;;;;;;;9.50;7.80;;;20.50;88.60;;;;;;5136540;27;20455;-75
2023/06/06 07:45:15;;;;;;;9.40;8.13;;;20.60;87.70;;;;;;5135565;27;20940;-76
2023/06/06 07:47:44;;;;;;;9.57;8.00;;;20.80;88.70;;;;;;5136315;27;20447;-75
2023/06/06 07:50:11;;;;;;;12.23;8.43;;;20.90;90.00;;;;;;5135703;27;20526;-76
2023/06/06 07:52:43;;;;;;;9.17;8.27;;;21.20;90.10;;;;;;5136518;27;20468;-76
2023/06/06 07:55:11;;;;;;;8.43;7.53;;;21.40;88.30;;;;;;5139755;27;20468;-76
2023/06/06 07:57:40;;;;;;;9.90;7.33;;;21.60;85.80;;;;;;5140114;27;20460;-76
2023/06/06 08:00:12;;;;;;;8.77;7.30;;;21.60;82.80;;;;;;5140116;27;20444;-76
2023/06/06 08:02:40;;;;;;;9.50;7.27;;;21.60;84.10;;;;;;5140540;27;20451;-76
2023/06/06 08:05:09;;;;;;;11.80;8.13;;;21.70;85.10;;;;;;5140031;27;20475;-76
2023/06/06 08:07:38;;;;;;;8.70;5.73;;;21.80;84.90;;;;;;5140259;27;20505;-76
2023/06/06 08:10:06;;;;;;;8.83;7.03;;;22.10;83.90;;;;;;5139677;27;20444;-76
2023/06/06 08:12:34;;;;;;;10.67;7.10;;;22.20;81.00;;;;;;5139912;27;20451;-76
2023/06/06 08:15:01;;;;;;;8.80;6.07;;;22.40;80.30;;;;;;5140141;27;20471;-76
2023/06/06 08:17:28;;;;;;;8.63;6.73;;;22.50;80.50;;;;;;5139523;27;20478;-76
2023/06/06 08:19:55;;;;;;;7.90;5.80;;;22.70;79.80;;;;;;5134596;27;20456;-77
2023/06/06 08:22:24;;;;;;;6.83;5.60;;;22.70;75.80;;;;;;5139656;27;20455;-77
2023/06/06 08:24:51;;;;;;;8.47;6.87;;;22.60;76.00;;;;;;5139477;27;20475;-77
2023/06/06 08:27:18;;;;;;;8.97;6.00;;;22.70;78.60;;;;;;5138553;27;20483;-77
2023/06/06 08:29:45;;;;;;;7.53;6.00;;;22.90;77.10;;;;;;5138216;27;20531;-76
2023/06/06 08:32:12;;;;;;;7.10;4.93;;;23.10;76.00;;;;;;5138733;27;20443;-76
2023/06/06 08:34:39;;;;;;;7.67;5.43;;;23.30;70.70;;;;;;5139150;27;20944;-76
2023/06/06 08:37:07;;;;;;;5.97;5.17;;;23.30;69.50;;;;;;5138707;27;20435;-75
2023/06/06 08:39:35;;;;;;;8.57;6.37;;;23.30;70.90;;;;;;5137626;27;20444;-76
2023/06/06 08:42:03;;;;;;;7.00;4.97;;;23.20;68.40;;;;;;5134180;27;20861;-75
2023/06/06 08:44:30;;;;;;;8.10;6.23;;;23.10;68.60;;;;;;5138959;27;20443;-76
2023/06/06 08:47:02;;;;;;;10.33;4.73;;;23.20;69.50;;;;;;5138326;27;20569;-76
2023/06/06 08:49:31;;;;;;;5.00;4.27;;;23.30;68.20;;;;;;5138403;27;20432;-76
2023/06/06 08:52:05;;;;;;;5.57;4.97;;;23.50;64.00;;;;;;5138666;27;20825;-76
2023/06/06 08:54:33;;;;;;;8.00;4.17;;;23.60;64.80;;;;;;5138542;27;20497;-76
2023/06/06 08:57:08;;;;;;;6.60;4.63;;;23.50;66.10;;;;;;5137947;27;20447;-76
2023/06/06 08:59:40;;;;;;;4.97;3.93;;;23.40;63.90;;;;;;5138839;27;20514;-75
2023/06/06 09:02:09;;;;;;;6.63;4.80;;;23.30;63.90;;;;;;5138168;27;20782;-76
2023/06/06 09:04:36;;;;;;;5.70;5.07;;;23.20;62.00;;;;;;5137549;27;20525;-75
2023/06/06 09:07:08;;;;;;;6.00;5.10;;;23.10;64.40;;;;;;5138566;27;20468;-76
2023/06/06 09:09:38;;;;;;;5.67;5.13;;;23.00;65.50;;;;;;5134902;27;20441;-76
2023/06/06 09:12:10;;;;;;;7.13;6.27;;;22.90;67.20;;;;;;5134717;27;20445;-76
2023/06/06 09:14:39;;;;;;;7.40;5.57;;;22.80;65.00;;;;;;5134763;27;20443;-76
2023/06/06 09:17:07;;;;;;;5.80;5.17;;;22.80;66.20;;;;;;5134084;27;21042;-76
2023/06/06 09:19:34;;;;;;;6.23;4.50;;;22.90;66.40;;;;;;5138121;27;20449;-76
2023/06/06 09:22:07;;;;;;;5.37;4.63;;;23.00;66.40;;;;;;5138101;27;20443;-77
2023/06/06 09:24:34;;;;;;;6.17;5.00;;;23.10;65.20;;;;;;5138591;27;20452;-76
2023/06/06 09:27:01;;;;;;;6.77;4.20;;;23.20;66.50;;;;;;5137701;27;20519;-76
2023/06/06 09:29:38;;;;;;;7.00;5.27;;;23.30;66.00;;;;;;5136773;27;20448;-76
2023/06/06 09:32:07;;;;;;;5.83;4.83;;;23.30;62.40;;;;;;5138280;27;20479;-76
2023/06/06 09:34:41;;;;;;;5.93;4.60;;;23.40;63.70;;;;;;5138027;27;20497;-76
2023/06/06 09:37:08;;;;;;;4.70;4.17;;;23.60;64.80;;;;;;5137978;27;20759;-77
2023/06/06 09:39:35;;;;;;;5.17;4.00;;;24.00;62.80;;;;;;5137837;27;20432;-76
2023/06/06 09:42:08;;;;;;;6.20;4.20;;;24.30;58.80;;;;;;5138286;27;20459;-76
2023/06/06 09:44:36;;;;;;;4.40;3.37;;;24.40;57.20;;;;;;5138234;27;20842;-76
2023/06/06 09:47:06;;;;;;;4.50;3.90;;;24.30;57.10;;;;;;5137659;27;20578;-76
2023/06/06 09:49:34;;;;;;;6.47;4.30;;;24.30;57.90;;;;;;5136864;27;20436;-76
2023/06/06 09:52:00;;;;;;;5.33;4.20;;;24.30;60.30;;;;;;5137545;27;20463;-76
2023/06/06 09:54:27;;;;;;;4.50;3.33;;;24.40;58.80;;;;;;5137796;27;20490;-76
2023/06/06 09:56:57;;;;;;;4.27;3.40;;;24.40;57.40;;;;;;5137867;27;20435;-76
2023/06/06 09:59:26;;;;;;;5.30;3.70;;;24.60;59.40;;;;;;5136590;27;20530;-75
2023/06/06 10:01:58;;;;;;;6.10;4.07;;;24.70;58.10;;;;;;5136324;27;20515;-75
2023/06/06 10:04:29;;;;;;;7.30;4.13;;;24.80;56.60;;;;;;5136527;27;20436;-76
2023/06/06 10:06:59;;;;;;;4.20;2.97;;;24.80;55.60;;;;;;5137531;27;20521;-73
2023/06/06 10:09:26;;;;;;;4.90;3.83;;;24.80;57.10;;;;;;5136930;27;20927;-74
2023/06/06 10:11:54;;;;;;;3.80;3.13;;;24.90;55.90;;;;;;5136665;27;20507;-74
2023/06/06 10:14:22;;;;;;;4.17;3.47;;;24.80;54.30;;;;;;5136735;27;20484;-74
2023/06/06 10:16:50;;;;;;;5.50;3.57;;;24.80;55.40;;;;;;5136106;27;20842;-71
2023/06/06 10:19:21;;;;;;;4.73;3.40;;;24.80;56.30;;;;;;5136605;27;21039;-73
2023/06/06 10:21:48;;;;;;;4.57;3.20;;;24.90;53.30;;;;;;5136133;27;20440;-73
2023/06/06 10:24:16;;;;;;;4.47;3.00;;;24.90;54.50;;;;;;5136640;27;20799;-74
2023/06/06 10:26:49;;;;;;;5.87;3.73;;;25.00;55.40;;;;;;5136491;27;20480;-72
2023/06/06 10:29:23;;;;;;;4.80;3.70;;;25.10;54.00;;;;;;5136080;27;20501;-73
2023/06/06 10:31:57;;;;;;;4.27;2.77;;;25.20;53.40;;;;;;5135670;27;20926;-73
2023/06/06 10:34:33;;;;;;;5.20;3.53;;;25.30;52.80;;;;;;5136137;27;20438;-73
2023/06/06 10:37:14;;;;;;;8.87;3.90;;;25.50;52.50;;;;;;5135227;27;20485;-73
2023/06/06 10:39:45;;;;;;;4.10;3.03;;;25.60;52.30;;;;;;5136283;27;20476;-73
2023/06/06 10:42:13;;;;;;;4.80;3.20;;;25.70;50.50;;;;;;5134747;27;20442;-73
2023/06/06 10:44:56;;;;;;;4.73;2.67;;;25.80;50.80;;;;;;5136272;27;20840;-73
2023/06/06 10:47:27;;;;;;;4.70;3.30;;;25.80;50.70;;;;;;5115930;28;20484;-74
2023/06/06 10:50:31;;;;;;;4.80;2.80;;;25.90;52.20;;;;;;5135362;27;20531;-73
2023/06/06 10:53:04;;;;;;;6.43;3.50;;;25.80;51.30;;;;;;5052349;28;20899;-75
2023/06/06 10:55:45;;;;;;;5.27;3.47;;;25.80;50.00;;;;;;5123107;27;21349;-74
2023/06/06 10:58:19;;;;;;;5.50;3.10;;;25.80;46.70;;;;;;5135379;27;20776;-73
2023/06/06 11:00:48;;;;;;;4.40;3.27;;;25.80;48.60;;;;;;5135186;27;20451;-74
2023/06/06 11:03:19;;;;;;;5.30;2.73;;;25.80;51.00;;;;;;5135577;27;20817;-74
2023/06/06 11:06:08;;;;;;;5.70;3.57;;;25.80;49.70;;;;;;5132239;27;20787;-74
2023/06/06 11:08:36;;;;;;;4.97;3.30;;;25.90;50.10;;;;;;5133932;27;20461;-74
2023/06/06 11:11:21;;;;;;;4.33;3.30;;;26.10;48.90;;;;;;5133947;27;20439;-74
2023/06/06 11:13:59;;;;;;;7.80;3.20;;;26.20;48.80;;;;;;5134452;27;20517;-73
2023/06/06 11:16:48;;;;;;;3.80;2.67;;;26.20;49.20;;;;;;5134010;28;20898;-74
2023/06/06 11:19:19;;;;;;;5.23;3.10;;;26.20;49.10;;;;;;5135289;27;20474;-74
2023/06/06 11:21:49;;;;;;;4.60;2.70;;;26.20;49.00;;;;;;5135206;28;20442;-74
2023/06/06 11:24:18;;;;;;;4.73;3.00;;;26.30;49.20;;;;;;5134735;27;20474;-74
2023/06/06 11:26:45;;;;;;;5.20;2.90;;;26.50;48.30;;;;;;5133771;27;20978;-73
2023/06/06 11:29:13;;;;;;;4.37;3.10;;;26.70;48.10;;;;;;5138962;27;20424;-74
2023/06/06 11:31:40;;;;;;;3.43;2.67;;;26.80;45.30;;;;;;5139125;27;20433;-74
2023/06/06 11:34:09;;;;;;;4.30;2.93;;;26.70;46.90;;;;;;5139317;27;20454;-74
2023/06/06 11:36:38;;;;;;;4.63;2.50;;;26.60;48.00;;;;;;5138625;27;20467;-75
2023/06/06 11:39:11;;;;;;;4.67;2.53;;;26.60;43.20;;;;;;5138946;27;20468;-74
2023/06/06 11:41:41;;;;;;;5.47;2.53;;;26.40;44.70;;;;;;5140240;27;20444;-74
2023/06/06 11:44:08;;;;;;;3.77;2.57;;;26.40;45.80;;;;;;5139253;27;20953;-74
2023/06/06 11:46:47;;;;;;;3.77;2.57;;;26.40;47.00;;;;;;5139072;27;20523;-74
2023/06/06 11:49:21;;;;;;;2.87;1.90;;;26.40;47.70;;;;;;5139069;27;20470;-74
2023/06/06 11:51:55;;;;;;;4.63;2.73;;;26.50;46.40;;;;;;5137651;27;20470;-74
2023/06/06 11:54:23;;;;;;;5.20;2.80;;;26.50;44.80;;;;;;5137127;27;20919;-74
2023/06/06 11:56:52;;;;;;;3.67;2.63;;;26.50;44.30;;;;;;5137492;27;20466;-74
2023/06/06 11:59:20;;;;;;;5.07;2.57;;;26.40;43.00;;;;;;5137408;27;20471;-74
2023/06/06 12:01:49;;;;;;;4.17;2.80;;;26.40;44.70;;;;;;5137107;27;20440;-74
2023/06/06 12:04:17;;;;;;;5.03;3.27;;;26.40;44.30;;;;;;5136922;27;20449;-74
2023/06/06 12:06:48;;;;;;;4.43;3.10;;;26.30;43.20;;;;;;5137082;27;20472;-74
2023/06/06 12:09:16;;;;;;;4.70;3.10;;;26.30;43.40;;;;;;5136997;27;20436;-74
2023/06/06 12:11:53;;;;;;;5.00;2.80;;;26.30;44.30;;;;;;5136602;27;20942;-74
2023/06/06 12:14:21;;;;;;;6.27;4.27;;;26.40;45.80;;;;;;5137018;27;20440;-74
2023/06/06 12:16:48;;;;;;;3.87;2.90;;;26.50;46.30;;;;;;5136562;27;20437;-74
2023/06/06 12:19:16;;;;;;;5.83;3.43;;;26.60;45.80;;;;;;5136762;27;20462;-73
2023/06/06 12:21:48;;;;;;;5.33;2.50;;;26.60;45.50;;;;;;5136820;27;20523;-74
2023/06/06 12:24:19;;;;;;;5.40;2.63;;;26.50;45.10;;;;;;5137086;27;20468;-74
2023/06/06 12:26:53;;;;;;;3.53;2.30;;;26.50;45.20;;;;;;5136473;27;20475;-74
2023/06/06 12:29:23;;;;;;;6.93;3.10;;;26.60;44.80;;;;;;5136853;27;20432;-74
2023/06/06 12:31:51;;;;;;;5.90;2.80;;;26.60;44.00;;;;;;5136471;27;20816;-75
2023/06/06 12:34:18;;;;;;;4.63;3.20;;;26.70;44.00;;;;;;5136896;27;20431;-74
2023/06/06 12:36:51;;;;;;;5.27;3.60;;;26.70;44.00;;;;;;5136394;27;20528;-75
2023/06/06 12:39:18;;;;;;;5.07;3.70;;;26.70;43.10;;;;;;5135537;27;20480;-75
2023/06/06 12:41:45;;;;;;;4.50;2.60;;;26.70;44.30;;;;;;5136188;27;20444;-74
2023/06/06 12:44:15;;;;;;;4.40;2.77;;;26.60;41.70;;;;;;5136480;27;20821;-74
2023/06/06 12:46:45;;;;;;;7.03;3.00;;;26.60;41.90;;;;;;5136562;27;20480;-74
2023/06/06 12:49:12;;;;;;;4.00;2.60;;;26.50;40.20;;;;;;5136455;27;20489;-75
2023/06/06 12:51:40;;;;;;;4.30;3.23;;;26.50;42.30;;;;;;5136503;27;20519;-74
2023/06/06 12:54:07;;;;;;;5.57;2.93;;;26.50;42.60;;;;;;5136126;27;20437;-74